sensor_id;sensor_type;location;lat;lon;timestamp;P1;durP1;ratioP1;P2;durP2;ratioP2
10174;SDS011;18221;38.704;0.152;2022-07-15T00:11:41;1.80;;;1.70;;
10174;SDS011;18221;38.704;0.152;2022-07-15T00:14:09;2.03;;;1.77;;
10174;SDS011;18221;38.704;0.152;2022-07-15T00:16:37;1.73;;;1.60;;
10174;SDS011;18221;38.704;0.152;2022-07-15T00:19:05;2.00;;;1.90;;
10174;SDS011;18221;38.704;0.152;2022-07-15T00:21:33;2.10;;;1.90;;
10174;SDS011;18221;38.704;0.152;2022-07-15T00:24:01;2.10;;;1.90;;
10174;SDS011;18221;38.704;0.152;2022-07-15T00:26:29;2.20;;;1.87;;
10174;SDS011;18221;38.704;0.152;2022-07-15T00:28:58;2.23;;;1.90;;
10174;SDS011;18221;38.704;0.152;2022-07-15T00:31:26;2.97;;;1.97;;
10174;SDS011;18221;38.704;0.152;2022-07-15T00:33:55;2.57;;;2.00;;
10174;SDS011;18221;38.704;0.152;2022-07-15T00:36:23;1.90;;;1.80;;
10174;SDS011;18221;38.704;0.152;2022-07-15T00:38:51;2.93;;;1.93;;
10174;SDS011;18221;38.704;0.152;2022-07-15T00:41:19;2.00;;;1.80;;
10174;SDS011;18221;38.704;0.152;2022-07-15T00:43:46;2.57;;;1.77;;
10174;SDS011;18221;38.704;0.152;2022-07-15T00:46:16;3.43;;;1.83;;
10174;SDS011;18221;38.704;0.152;2022-07-15T00:48:47;2.00;;;1.80;;
10174;SDS011;18221;38.704;0.152;2022-07-15T00:51:16;2.83;;;1.90;;
10174;SDS011;18221;38.704;0.152;2022-07-15T00:53:44;1.93;;;1.83;;
10174;SDS011;18221;38.704;0.152;2022-07-15T00:56:15;2.97;;;1.80;;
10174;SDS011;18221;38.704;0.152;2022-07-15T00:58:48;2.27;;;1.80;;
10174;SDS011;18221;38.704;0.152;2022-07-15T01:01:20;3.10;;;1.70;;
10174;SDS011;18221;38.704;0.152;2022-07-15T01:03:48;1.87;;;1.60;;
10174;SDS011;18221;38.704;0.152;2022-07-15T01:06:18;2.10;;;1.90;;
10174;SDS011;18221;38.704;0.152;2022-07-15T01:08:46;1.60;;;1.50;;
10174;SDS011;18221;38.704;0.152;2022-07-15T01:11:15;3.07;;;1.80;;
10174;SDS011;18221;38.704;0.152;2022-07-15T01:13:43;4.43;;;1.80;;
10174;SDS011;18221;38.704;0.152;2022-07-15T01:16:12;1.90;;;1.80;;
10174;SDS011;18221;38.704;0.152;2022-07-15T01:18:41;2.10;;;1.90;;
10174;SDS011;18221;38.704;0.152;2022-07-15T01:21:11;1.70;;;1.57;;
10174;SDS011;18221;38.704;0.152;2022-07-15T01:23:39;1.90;;;1.80;;
10174;SDS011;18221;38.704;0.152;2022-07-15T01:26:08;3.70;;;2.03;;
10174;SDS011;18221;38.704;0.152;2022-07-15T01:28:38;3.83;;;1.80;;
10174;SDS011;18221;38.704;0.152;2022-07-15T01:31:07;3.03;;;1.90;;
10174;SDS011;18221;38.704;0.152;2022-07-15T01:33:35;2.80;;;1.77;;
10174;SDS011;18221;38.704;0.152;2022-07-15T01:36:04;2.37;;;1.97;;
10174;SDS011;18221;38.704;0.152;2022-07-15T01:38:35;3.30;;;1.70;;
10174;SDS011;18221;38.704;0.152;2022-07-15T01:41:03;2.50;;;1.80;;
10174;SDS011;18221;38.704;0.152;2022-07-15T01:43:31;2.17;;;1.80;;
10174;SDS011;18221;38.704;0.152;2022-07-15T01:45:59;2.83;;;2.20;;
10174;SDS011;18221;38.704;0.152;2022-07-15T01:48:27;3.33;;;2.30;;
10174;SDS011;18221;38.704;0.152;2022-07-15T01:51:12;3.33;;;2.10;;
10174;SDS011;18221;38.704;0.152;2022-07-15T01:53:41;3.43;;;2.53;;
10174;SDS011;18221;38.704;0.152;2022-07-15T01:56:09;4.20;;;2.30;;
10174;SDS011;18221;38.704;0.152;2022-07-15T01:58:37;3.63;;;2.20;;
10174;SDS011;18221;38.704;0.152;2022-07-15T02:01:05;4.50;;;2.40;;
10174;SDS011;18221;38.704;0.152;2022-07-15T02:03:33;5.33;;;2.90;;
10174;SDS011;18221;38.704;0.152;2022-07-15T02:06:01;5.63;;;3.00;;
10174;SDS011;18221;38.704;0.152;2022-07-15T02:08:29;3.73;;;2.97;;
10174;SDS011;18221;38.704;0.152;2022-07-15T02:10:59;5.37;;;3.20;;
10174;SDS011;18221;38.704;0.152;2022-07-15T02:13:27;5.47;;;2.80;;
10174;SDS011;18221;38.704;0.152;2022-07-15T02:15:55;6.33;;;3.47;;
10174;SDS011;18221;38.704;0.152;2022-07-15T02:18:23;5.40;;;3.43;;
10174;SDS011;18221;38.704;0.152;2022-07-15T02:20:51;4.70;;;3.10;;
10174;SDS011;18221;38.704;0.152;2022-07-15T02:23:19;6.73;;;3.37;;
10174;SDS011;18221;38.704;0.152;2022-07-15T02:25:47;5.97;;;2.90;;
10174;SDS011;18221;38.704;0.152;2022-07-15T02:28:16;4.30;;;2.80;;
10174;SDS011;18221;38.704;0.152;2022-07-15T02:30:44;5.23;;;2.97;;
10174;SDS011;18221;38.704;0.152;2022-07-15T02:33:13;5.00;;;2.73;;
10174;SDS011;18221;38.704;0.152;2022-07-15T02:35:42;5.03;;;2.93;;
10174;SDS011;18221;38.704;0.152;2022-07-15T02:38:10;3.33;;;2.70;;
10174;SDS011;18221;38.704;0.152;2022-07-15T02:40:38;5.17;;;3.10;;
10174;SDS011;18221;38.704;0.152;2022-07-15T02:43:06;4.60;;;2.60;;
10174;SDS011;18221;38.704;0.152;2022-07-15T02:45:36;4.63;;;2.50;;
10174;SDS011;18221;38.704;0.152;2022-07-15T02:48:05;4.63;;;3.20;;
10174;SDS011;18221;38.704;0.152;2022-07-15T02:50:34;4.47;;;2.90;;
10174;SDS011;18221;38.704;0.152;2022-07-15T02:53:03;5.83;;;3.20;;
10174;SDS011;18221;38.704;0.152;2022-07-15T02:55:31;3.97;;;2.97;;
10174;SDS011;18221;38.704;0.152;2022-07-15T02:57:59;5.23;;;3.10;;
10174;SDS011;18221;38.704;0.152;2022-07-15T03:00:27;5.80;;;2.93;;
10174;SDS011;18221;38.704;0.152;2022-07-15T03:02:57;7.17;;;3.17;;
10174;SDS011;18221;38.704;0.152;2022-07-15T03:05:25;3.60;;;2.43;;
10174;SDS011;18221;38.704;0.152;2022-07-15T03:07:52;5.83;;;2.63;;
10174;SDS011;18221;38.704;0.152;2022-07-15T03:10:20;5.37;;;2.63;;
10174;SDS011;18221;38.704;0.152;2022-07-15T03:12:48;4.50;;;2.70;;
10174;SDS011;18221;38.704;0.152;2022-07-15T03:15:17;3.87;;;2.70;;
10174;SDS011;18221;38.704;0.152;2022-07-15T03:17:44;4.70;;;2.80;;
10174;SDS011;18221;38.704;0.152;2022-07-15T03:20:14;4.10;;;3.20;;
10174;SDS011;18221;38.704;0.152;2022-07-15T03:22:42;5.30;;;3.20;;
10174;SDS011;18221;38.704;0.152;2022-07-15T03:25:10;4.87;;;3.47;;
10174;SDS011;18221;38.704;0.152;2022-07-15T03:27:38;5.47;;;3.37;;
10174;SDS011;18221;38.704;0.152;2022-07-15T03:30:06;8.17;;;3.50;;
10174;SDS011;18221;38.704;0.152;2022-07-15T03:32:35;5.70;;;3.13;;
10174;SDS011;18221;38.704;0.152;2022-07-15T03:35:03;8.43;;;3.67;;
10174;SDS011;18221;38.704;0.152;2022-07-15T03:37:33;5.63;;;3.60;;
10174;SDS011;18221;38.704;0.152;2022-07-15T03:40:01;5.43;;;3.97;;
10174;SDS011;18221;38.704;0.152;2022-07-15T03:42:30;6.93;;;4.40;;
10174;SDS011;18221;38.704;0.152;2022-07-15T03:44:58;5.27;;;4.00;;
10174;SDS011;18221;38.704;0.152;2022-07-15T03:47:26;5.23;;;3.70;;
10174;SDS011;18221;38.704;0.152;2022-07-15T03:49:54;6.00;;;4.67;;
10174;SDS011;18221;38.704;0.152;2022-07-15T03:52:22;5.77;;;4.73;;
10174;SDS011;18221;38.704;0.152;2022-07-15T03:54:52;5.73;;;3.77;;
10174;SDS011;18221;38.704;0.152;2022-07-15T03:57:20;6.83;;;4.10;;
10174;SDS011;18221;38.704;0.152;2022-07-15T03:59:50;3.53;;;3.23;;
10174;SDS011;18221;38.704;0.152;2022-07-15T04:02:18;4.43;;;3.10;;
10174;SDS011;18221;38.704;0.152;2022-07-15T04:04:46;4.00;;;2.90;;
10174;SDS011;18221;38.704;0.152;2022-07-15T04:07:14;3.40;;;3.10;;
10174;SDS011;18221;38.704;0.152;2022-07-15T04:09:42;3.00;;;2.77;;
10174;SDS011;18221;38.704;0.152;2022-07-15T04:12:11;3.37;;;3.07;;
10174;SDS011;18221;38.704;0.152;2022-07-15T04:14:39;4.13;;;3.00;;
10174;SDS011;18221;38.704;0.152;2022-07-15T04:17:07;4.40;;;3.73;;
10174;SDS011;18221;38.704;0.152;2022-07-15T04:19:35;3.83;;;3.17;;
10174;SDS011;18221;38.704;0.152;2022-07-15T04:22:03;6.33;;;3.37;;
10174;SDS011;18221;38.704;0.152;2022-07-15T04:24:31;4.70;;;3.37;;
10174;SDS011;18221;38.704;0.152;2022-07-15T04:26:59;5.00;;;3.30;;
10174;SDS011;18221;38.704;0.152;2022-07-15T04:29:28;4.97;;;2.90;;
10174;SDS011;18221;38.704;0.152;2022-07-15T04:31:56;2.90;;;2.57;;
10174;SDS011;18221;38.704;0.152;2022-07-15T04:34:24;5.03;;;3.00;;
10174;SDS011;18221;38.704;0.152;2022-07-15T04:36:52;4.13;;;2.67;;
10174;SDS011;18221;38.704;0.152;2022-07-15T04:39:20;7.40;;;3.77;;
10174;SDS011;18221;38.704;0.152;2022-07-15T04:41:48;6.03;;;3.97;;
10174;SDS011;18221;38.704;0.152;2022-07-15T04:44:16;5.70;;;3.90;;
10174;SDS011;18221;38.704;0.152;2022-07-15T04:46:46;6.57;;;4.20;;
10174;SDS011;18221;38.704;0.152;2022-07-15T04:49:14;8.83;;;4.67;;
10174;SDS011;18221;38.704;0.152;2022-07-15T04:51:59;5.90;;;4.43;;
10174;SDS011;18221;38.704;0.152;2022-07-15T04:54:27;4.37;;;3.97;;
10174;SDS011;18221;38.704;0.152;2022-07-15T04:56:55;7.97;;;4.60;;
10174;SDS011;18221;38.704;0.152;2022-07-15T04:59:23;7.67;;;4.43;;
10174;SDS011;18221;38.704;0.152;2022-07-15T05:01:53;5.87;;;4.00;;
10174;SDS011;18221;38.704;0.152;2022-07-15T05:04:21;9.27;;;4.43;;
10174;SDS011;18221;38.704;0.152;2022-07-15T05:06:49;7.87;;;5.63;;
10174;SDS011;18221;38.704;0.152;2022-07-15T05:09:17;9.33;;;6.37;;
10174;SDS011;18221;38.704;0.152;2022-07-15T05:11:45;7.90;;;6.23;;
10174;SDS011;18221;38.704;0.152;2022-07-15T05:14:12;7.57;;;6.77;;
10174;SDS011;18221;38.704;0.152;2022-07-15T05:16:40;10.73;;;6.60;;
10174;SDS011;18221;38.704;0.152;2022-07-15T05:19:10;6.50;;;5.90;;
10174;SDS011;18221;38.704;0.152;2022-07-15T05:21:38;7.77;;;6.40;;
10174;SDS011;18221;38.704;0.152;2022-07-15T05:24:06;6.93;;;6.10;;
10174;SDS011;18221;38.704;0.152;2022-07-15T05:26:34;6.70;;;5.97;;
10174;SDS011;18221;38.704;0.152;2022-07-15T05:29:04;7.57;;;5.60;;
10174;SDS011;18221;38.704;0.152;2022-07-15T05:31:32;10.00;;;5.37;;
10174;SDS011;18221;38.704;0.152;2022-07-15T05:34:00;7.83;;;5.63;;
10174;SDS011;18221;38.704;0.152;2022-07-15T05:36:29;7.33;;;5.70;;
10174;SDS011;18221;38.704;0.152;2022-07-15T05:38:57;7.40;;;6.13;;
10174;SDS011;18221;38.704;0.152;2022-07-15T05:41:25;6.03;;;5.37;;
10174;SDS011;18221;38.704;0.152;2022-07-15T05:43:53;7.83;;;5.53;;
10174;SDS011;18221;38.704;0.152;2022-07-15T05:46:21;5.77;;;5.27;;
10174;SDS011;18221;38.704;0.152;2022-07-15T05:48:49;7.23;;;5.03;;
10174;SDS011;18221;38.704;0.152;2022-07-15T05:51:17;5.80;;;5.17;;
10174;SDS011;18221;38.704;0.152;2022-07-15T05:53:47;5.90;;;5.40;;
10174;SDS011;18221;38.704;0.152;2022-07-15T05:56:15;6.23;;;4.97;;
10174;SDS011;18221;38.704;0.152;2022-07-15T05:58:43;5.93;;;5.33;;
10174;SDS011;18221;38.704;0.152;2022-07-15T06:01:11;8.40;;;4.90;;
10174;SDS011;18221;38.704;0.152;2022-07-15T06:03:39;5.90;;;5.30;;
10174;SDS011;18221;38.704;0.152;2022-07-15T06:06:08;5.17;;;4.50;;
10174;SDS011;18221;38.704;0.152;2022-07-15T06:08:36;8.20;;;5.03;;
10174;SDS011;18221;38.704;0.152;2022-07-15T06:11:05;5.63;;;4.57;;
10174;SDS011;18221;38.704;0.152;2022-07-15T06:13:34;5.27;;;4.77;;
10174;SDS011;18221;38.704;0.152;2022-07-15T06:16:03;5.00;;;4.50;;
10174;SDS011;18221;38.704;0.152;2022-07-15T06:18:33;7.37;;;4.87;;
10174;SDS011;18221;38.704;0.152;2022-07-15T06:21:01;6.93;;;4.20;;
10174;SDS011;18221;38.704;0.152;2022-07-15T06:23:29;4.60;;;3.77;;
10174;SDS011;18221;38.704;0.152;2022-07-15T06:25:57;6.13;;;3.80;;
10174;SDS011;18221;38.704;0.152;2022-07-15T06:28:26;4.83;;;3.70;;
10174;SDS011;18221;38.704;0.152;2022-07-15T06:30:54;6.30;;;4.07;;
10174;SDS011;18221;38.704;0.152;2022-07-15T06:33:22;9.00;;;4.27;;
10174;SDS011;18221;38.704;0.152;2022-07-15T06:35:50;4.23;;;3.80;;
10174;SDS011;18221;38.704;0.152;2022-07-15T06:38:20;4.70;;;3.37;;
10174;SDS011;18221;38.704;0.152;2022-07-15T06:40:48;4.43;;;3.60;;
10174;SDS011;18221;38.704;0.152;2022-07-15T06:43:16;4.60;;;3.30;;
10174;SDS011;18221;38.704;0.152;2022-07-15T06:45:45;6.47;;;3.40;;
10174;SDS011;18221;38.704;0.152;2022-07-15T06:48:13;3.87;;;3.47;;
10174;SDS011;18221;38.704;0.152;2022-07-15T06:50:42;4.87;;;3.20;;
10174;SDS011;18221;38.704;0.152;2022-07-15T06:53:10;4.70;;;3.37;;
10174;SDS011;18221;38.704;0.152;2022-07-15T06:55:38;4.07;;;3.50;;
10174;SDS011;18221;38.704;0.152;2022-07-15T06:58:06;3.77;;;3.37;;
10174;SDS011;18221;38.704;0.152;2022-07-15T07:00:34;3.40;;;3.10;;
10174;SDS011;18221;38.704;0.152;2022-07-15T07:03:04;3.17;;;2.90;;
10174;SDS011;18221;38.704;0.152;2022-07-15T07:05:32;3.83;;;2.37;;
10174;SDS011;18221;38.704;0.152;2022-07-15T07:08:00;2.73;;;2.50;;
10174;SDS011;18221;38.704;0.152;2022-07-15T07:10:27;3.00;;;2.40;;
10174;SDS011;18221;38.704;0.152;2022-07-15T07:12:56;3.40;;;2.30;;
10174;SDS011;18221;38.704;0.152;2022-07-15T07:15:24;3.30;;;2.50;;
10174;SDS011;18221;38.704;0.152;2022-07-15T07:17:52;2.77;;;2.33;;
10174;SDS011;18221;38.704;0.152;2022-07-15T07:20:22;3.23;;;2.53;;
10174;SDS011;18221;38.704;0.152;2022-07-15T07:22:50;3.30;;;2.30;;
10174;SDS011;18221;38.704;0.152;2022-07-15T07:25:18;3.00;;;2.10;;
10174;SDS011;18221;38.704;0.152;2022-07-15T07:27:46;2.57;;;2.10;;
10174;SDS011;18221;38.704;0.152;2022-07-15T07:30:14;3.10;;;2.20;;
10174;SDS011;18221;38.704;0.152;2022-07-15T07:32:42;2.50;;;2.00;;
10174;SDS011;18221;38.704;0.152;2022-07-15T07:35:11;3.33;;;2.10;;
10174;SDS011;18221;38.704;0.152;2022-07-15T07:37:40;2.50;;;2.30;;
10174;SDS011;18221;38.704;0.152;2022-07-15T07:40:08;5.63;;;2.80;;
10174;SDS011;18221;38.704;0.152;2022-07-15T07:42:36;15.02;;;7.93;;
10174;SDS011;18221;38.704;0.152;2022-07-15T07:45:05;2.85;;;2.20;;
10174;SDS011;18221;38.704;0.152;2022-07-15T07:47:36;2.90;;;2.50;;
10174;SDS011;18221;38.704;0.152;2022-07-15T07:50:06;4.60;;;2.75;;
10174;SDS011;18221;38.704;0.152;2022-07-15T07:52:36;2.83;;;2.03;;
10174;SDS011;18221;38.704;0.152;2022-07-15T07:55:06;4.57;;;2.20;;
10174;SDS011;18221;38.704;0.152;2022-07-15T07:57:35;7.95;;;2.20;;
10174;SDS011;18221;38.704;0.152;2022-07-15T08:00:14;4.78;;;2.00;;
10174;SDS011;18221;38.704;0.152;2022-07-15T08:02:43;3.78;;;1.88;;
10174;SDS011;18221;38.704;0.152;2022-07-15T08:05:13;5.32;;;2.25;;
10174;SDS011;18221;38.704;0.152;2022-07-15T08:07:42;3.50;;;1.88;;
10174;SDS011;18221;38.704;0.152;2022-07-15T08:10:12;2.45;;;1.70;;
10174;SDS011;18221;38.704;0.152;2022-07-15T08:12:42;2.15;;;1.65;;
10174;SDS011;18221;38.704;0.152;2022-07-15T08:15:10;4.03;;;2.10;;
10174;SDS011;18221;38.704;0.152;2022-07-15T08:17:40;3.85;;;2.00;;
10174;SDS011;18221;38.704;0.152;2022-07-15T08:20:08;2.80;;;1.75;;
10174;SDS011;18221;38.704;0.152;2022-07-15T08:22:38;3.00;;;1.70;;
10174;SDS011;18221;38.704;0.152;2022-07-15T08:25:06;3.88;;;1.73;;
10174;SDS011;18221;38.704;0.152;2022-07-15T08:27:36;2.00;;;1.60;;
10174;SDS011;18221;38.704;0.152;2022-07-15T08:30:05;2.90;;;1.42;;
10174;SDS011;18221;38.704;0.152;2022-07-15T08:32:34;2.83;;;1.50;;
10174;SDS011;18221;38.704;0.152;2022-07-15T08:35:02;2.70;;;1.75;;
10174;SDS011;18221;38.704;0.152;2022-07-15T08:37:30;3.38;;;1.80;;
10174;SDS011;18221;38.704;0.152;2022-07-15T08:39:58;2.33;;;1.65;;
10174;SDS011;18221;38.704;0.152;2022-07-15T08:42:26;4.05;;;2.00;;
10174;SDS011;18221;38.704;0.152;2022-07-15T08:44:56;3.83;;;1.92;;
10174;SDS011;18221;38.704;0.152;2022-07-15T08:47:24;3.28;;;1.60;;
10174;SDS011;18221;38.704;0.152;2022-07-15T08:49:52;1.83;;;1.55;;
10174;SDS011;18221;38.704;0.152;2022-07-15T08:52:24;3.33;;;1.90;;
10174;SDS011;18221;38.704;0.152;2022-07-15T08:54:52;2.80;;;1.90;;
10174;SDS011;18221;38.704;0.152;2022-07-15T08:57:20;2.50;;;1.70;;
10174;SDS011;18221;38.704;0.152;2022-07-15T08:59:48;3.08;;;1.80;;
10174;SDS011;18221;38.704;0.152;2022-07-15T09:02:19;2.42;;;1.60;;
10174;SDS011;18221;38.704;0.152;2022-07-15T09:07:53;2.72;;;1.70;;
10174;SDS011;18221;38.704;0.152;2022-07-15T09:10:25;2.72;;;1.70;;
10174;SDS011;18221;38.704;0.152;2022-07-15T09:13:09;3.67;;;2.00;;
10174;SDS011;18221;38.704;0.152;2022-07-15T09:15:38;4.75;;;1.80;;
10174;SDS011;18221;38.704;0.152;2022-07-15T09:18:12;3.08;;;1.52;;
10174;SDS011;18221;38.704;0.152;2022-07-15T09:20:45;2.33;;;1.60;;
10174;SDS011;18221;38.704;0.152;2022-07-15T09:23:15;3.08;;;1.77;;
10174;SDS011;18221;38.704;0.152;2022-07-15T09:25:49;2.75;;;1.90;;
10174;SDS011;18221;38.704;0.152;2022-07-15T09:28:17;3.00;;;1.77;;
10174;SDS011;18221;38.704;0.152;2022-07-15T09:30:45;3.05;;;1.83;;
10174;SDS011;18221;38.704;0.152;2022-07-15T09:33:33;3.30;;;1.77;;
10174;SDS011;18221;38.704;0.152;2022-07-15T09:36:11;2.25;;;1.80;;
10174;SDS011;18221;38.704;0.152;2022-07-15T09:38:42;4.45;;;1.90;;
10174;SDS011;18221;38.704;0.152;2022-07-15T09:41:19;2.47;;;1.75;;
10174;SDS011;18221;38.704;0.152;2022-07-15T09:43:55;6.40;;;1.70;;
10174;SDS011;18221;38.704;0.152;2022-07-15T09:46:27;4.50;;;1.65;;
10174;SDS011;18221;38.704;0.152;2022-07-15T09:49:09;2.75;;;1.98;;
10174;SDS011;18221;38.704;0.152;2022-07-15T09:51:45;2.63;;;1.58;;
10174;SDS011;18221;38.704;0.152;2022-07-15T09:54:16;2.45;;;1.80;;
10174;SDS011;18221;38.704;0.152;2022-07-15T09:56:44;1.70;;;1.60;;
10174;SDS011;18221;38.704;0.152;2022-07-15T09:59:14;3.10;;;1.80;;
10174;SDS011;18221;38.704;0.152;2022-07-15T10:01:42;2.33;;;1.80;;
10174;SDS011;18221;38.704;0.152;2022-07-15T10:04:15;4.47;;;2.00;;
10174;SDS011;18221;38.704;0.152;2022-07-15T10:06:49;2.00;;;1.70;;
10174;SDS011;18221;38.704;0.152;2022-07-15T10:09:19;4.45;;;1.90;;
10174;SDS011;18221;38.704;0.152;2022-07-15T10:11:50;3.22;;;2.00;;
10174;SDS011;18221;38.704;0.152;2022-07-15T10:14:33;3.28;;;1.60;;
10174;SDS011;18221;38.704;0.152;2022-07-15T10:17:44;1.88;;;1.50;;
10174;SDS011;18221;38.704;0.152;2022-07-15T10:20:51;2.20;;;1.60;;
10174;SDS011;18221;38.704;0.152;2022-07-15T10:23:37;1.70;;;1.50;;
10174;SDS011;18221;38.704;0.152;2022-07-15T10:26:40;2.97;;;1.92;;
10174;SDS011;18221;38.704;0.152;2022-07-15T10:29:22;2.28;;;1.73;;
10174;SDS011;18221;38.704;0.152;2022-07-15T10:31:55;4.85;;;2.00;;
10174;SDS011;18221;38.704;0.152;2022-07-15T10:34:29;2.92;;;1.75;;
10174;SDS011;18221;38.704;0.152;2022-07-15T10:37:02;4.43;;;1.90;;
10174;SDS011;18221;38.704;0.152;2022-07-15T10:39:52;4.13;;;2.05;;
10174;SDS011;18221;38.704;0.152;2022-07-15T10:45:26;3.13;;;2.00;;
10174;SDS011;18221;38.704;0.152;2022-07-15T10:50:55;2.70;;;1.83;;
10174;SDS011;18221;38.704;0.152;2022-07-15T10:53:25;1.90;;;1.70;;
10174;SDS011;18221;38.704;0.152;2022-07-15T10:55:54;2.15;;;1.80;;
10174;SDS011;18221;38.704;0.152;2022-07-15T10:58:23;2.38;;;1.80;;
10174;SDS011;18221;38.704;0.152;2022-07-15T11:00:50;2.80;;;1.90;;
10174;SDS011;18221;38.704;0.152;2022-07-15T11:03:19;2.83;;;1.50;;
10174;SDS011;18221;38.704;0.152;2022-07-15T11:06:03;3.25;;;1.85;;
10174;SDS011;18221;38.704;0.152;2022-07-15T11:17:19;3.00;;;1.60;;
10174;SDS011;18221;38.704;0.152;2022-07-15T11:19:52;2.70;;;1.52;;
10174;SDS011;18221;38.704;0.152;2022-07-15T11:22:23;1.35;;;1.20;;
10174;SDS011;18221;38.704;0.152;2022-07-15T11:24:55;1.50;;;1.40;;
10174;SDS011;18221;38.704;0.152;2022-07-15T11:27:24;1.92;;;1.50;;
10174;SDS011;18221;38.704;0.152;2022-07-15T11:29:53;2.90;;;1.50;;
10174;SDS011;18221;38.704;0.152;2022-07-15T11:32:26;4.43;;;1.55;;
10174;SDS011;18221;38.704;0.152;2022-07-15T11:35:04;1.42;;;1.33;;
10174;SDS011;18221;38.704;0.152;2022-07-15T11:37:33;2.15;;;1.52;;
10174;SDS011;18221;38.704;0.152;2022-07-15T11:40:08;3.47;;;1.50;;
10174;SDS011;18221;38.704;0.152;2022-07-15T11:43:00;3.53;;;1.73;;
10174;SDS011;18221;38.704;0.152;2022-07-15T11:45:47;4.40;;;1.77;;
10174;SDS011;18221;38.704;0.152;2022-07-15T11:48:15;3.20;;;1.58;;
10174;SDS011;18221;38.704;0.152;2022-07-15T11:50:48;5.25;;;1.83;;
10174;SDS011;18221;38.704;0.152;2022-07-15T11:53:18;3.50;;;1.85;;
10174;SDS011;18221;38.704;0.152;2022-07-15T11:55:48;2.55;;;1.40;;
10174;SDS011;18221;38.704;0.152;2022-07-15T11:58:28;2.08;;;1.70;;
10174;SDS011;18221;38.704;0.152;2022-07-15T12:00:58;2.13;;;1.48;;
10174;SDS011;18221;38.704;0.152;2022-07-15T12:03:38;3.47;;;1.70;;
10174;SDS011;18221;38.704;0.152;2022-07-15T12:06:09;1.88;;;1.48;;
10174;SDS011;18221;38.704;0.152;2022-07-15T12:08:43;2.40;;;1.60;;
10174;SDS011;18221;38.704;0.152;2022-07-15T12:11:17;1.77;;;1.40;;
10174;SDS011;18221;38.704;0.152;2022-07-15T12:13:52;2.10;;;1.30;;
10174;SDS011;18221;38.704;0.152;2022-07-15T12:16:26;4.45;;;1.48;;
10174;SDS011;18221;38.704;0.152;2022-07-15T12:18:58;5.70;;;1.83;;
10174;SDS011;18221;38.704;0.152;2022-07-15T12:21:28;2.60;;;1.52;;
10174;SDS011;18221;38.704;0.152;2022-07-15T12:23:58;2.90;;;1.50;;
10174;SDS011;18221;38.704;0.152;2022-07-15T12:26:31;2.03;;;1.48;;
10174;SDS011;18221;38.704;0.152;2022-07-15T12:29:01;1.95;;;1.48;;
10174;SDS011;18221;38.704;0.152;2022-07-15T12:31:30;2.38;;;1.60;;
10174;SDS011;18221;38.704;0.152;2022-07-15T12:34:03;4.03;;;1.50;;
10174;SDS011;18221;38.704;0.152;2022-07-15T12:36:32;2.80;;;1.20;;
10174;SDS011;18221;38.704;0.152;2022-07-15T12:39:10;3.78;;;1.00;;
10174;SDS011;18221;38.704;0.152;2022-07-15T12:41:45;1.85;;;1.08;;
10174;SDS011;18221;38.704;0.152;2022-07-15T12:44:26;1.27;;;1.17;;
10174;SDS011;18221;38.704;0.152;2022-07-15T12:46:56;2.05;;;1.45;;
10174;SDS011;18221;38.704;0.152;2022-07-15T12:49:42;1.40;;;1.25;;
10174;SDS011;18221;38.704;0.152;2022-07-15T12:52:14;3.03;;;1.25;;
10174;SDS011;18221;38.704;0.152;2022-07-15T12:54:50;1.92;;;1.15;;
10174;SDS011;18221;38.704;0.152;2022-07-15T12:57:23;2.28;;;1.40;;
10174;SDS011;18221;38.704;0.152;2022-07-15T12:59:57;1.67;;;1.10;;
10174;SDS011;18221;38.704;0.152;2022-07-15T13:02:29;1.55;;;1.33;;
10174;SDS011;18221;38.704;0.152;2022-07-15T13:04:57;1.33;;;1.17;;
10174;SDS011;18221;38.704;0.152;2022-07-15T13:07:25;1.80;;;1.13;;
10174;SDS011;18221;38.704;0.152;2022-07-15T13:09:53;1.15;;;1.05;;
10174;SDS011;18221;38.704;0.152;2022-07-15T13:12:22;2.60;;;1.10;;
10174;SDS011;18221;38.704;0.152;2022-07-15T13:14:50;1.38;;;1.27;;
10174;SDS011;18221;38.704;0.152;2022-07-15T13:17:18;0.93;;;0.90;;
10174;SDS011;18221;38.704;0.152;2022-07-15T13:19:46;5.18;;;1.40;;
10174;SDS011;18221;38.704;0.152;2022-07-15T13:22:14;2.45;;;1.25;;
10174;SDS011;18221;38.704;0.152;2022-07-15T13:24:42;1.55;;;1.20;;
10174;SDS011;18221;38.704;0.152;2022-07-15T13:27:10;2.33;;;1.50;;
10174;SDS011;18221;38.704;0.152;2022-07-15T13:29:39;2.45;;;1.30;;
10174;SDS011;18221;38.704;0.152;2022-07-15T13:32:07;2.22;;;1.45;;
10174;SDS011;18221;38.704;0.152;2022-07-15T13:34:35;2.63;;;1.50;;
10174;SDS011;18221;38.704;0.152;2022-07-15T13:37:03;1.65;;;1.40;;
10174;SDS011;18221;38.704;0.152;2022-07-15T13:39:31;1.88;;;1.30;;
10174;SDS011;18221;38.704;0.152;2022-07-15T13:41:58;3.33;;;1.33;;
10174;SDS011;18221;38.704;0.152;2022-07-15T13:44:26;2.28;;;1.20;;
10174;SDS011;18221;38.704;0.152;2022-07-15T13:46:56;1.17;;;1.08;;
10174;SDS011;18221;38.704;0.152;2022-07-15T13:49:24;1.75;;;1.23;;
10174;SDS011;18221;38.704;0.152;2022-07-15T13:52:05;2.17;;;1.20;;
10174;SDS011;18221;38.704;0.152;2022-07-15T13:54:33;1.42;;;1.27;;
10174;SDS011;18221;38.704;0.152;2022-07-15T13:57:01;2.70;;;1.13;;
10174;SDS011;18221;38.704;0.152;2022-07-15T13:59:29;3.83;;;1.75;;
10174;SDS011;18221;38.704;0.152;2022-07-15T14:01:59;1.30;;;1.20;;
10174;SDS011;18221;38.704;0.152;2022-07-15T14:04:29;1.45;;;1.20;;
10174;SDS011;18221;38.704;0.152;2022-07-15T14:06:57;1.45;;;1.00;;
10174;SDS011;18221;38.704;0.152;2022-07-15T14:09:25;1.60;;;1.33;;
10174;SDS011;18221;38.704;0.152;2022-07-15T14:11:53;3.47;;;1.30;;
10174;SDS011;18221;38.704;0.152;2022-07-15T14:14:21;2.70;;;1.30;;
10174;SDS011;18221;38.704;0.152;2022-07-15T14:16:49;1.33;;;1.23;;
10174;SDS011;18221;38.704;0.152;2022-07-15T14:19:20;2.10;;;1.30;;
10174;SDS011;18221;38.704;0.152;2022-07-15T14:21:49;2.58;;;1.10;;
10174;SDS011;18221;38.704;0.152;2022-07-15T14:24:17;3.40;;;1.38;;
10174;SDS011;18221;38.704;0.152;2022-07-15T14:26:45;2.25;;;1.27;;
10174;SDS011;18221;38.704;0.152;2022-07-15T14:29:13;1.52;;;1.35;;
10174;SDS011;18221;38.704;0.152;2022-07-15T14:31:41;1.60;;;1.00;;
10174;SDS011;18221;38.704;0.152;2022-07-15T14:34:09;1.52;;;1.30;;
10174;SDS011;18221;38.704;0.152;2022-07-15T14:36:38;1.63;;;0.90;;
10174;SDS011;18221;38.704;0.152;2022-07-15T14:39:07;1.30;;;1.20;;
10174;SDS011;18221;38.704;0.152;2022-07-15T14:41:35;1.58;;;1.17;;
10174;SDS011;18221;38.704;0.152;2022-07-15T14:44:03;1.60;;;1.10;;
10174;SDS011;18221;38.704;0.152;2022-07-15T14:46:32;2.65;;;1.30;;
10174;SDS011;18221;38.704;0.152;2022-07-15T14:49:00;1.33;;;1.17;;
10174;SDS011;18221;38.704;0.152;2022-07-15T14:51:28;1.50;;;1.20;;
10174;SDS011;18221;38.704;0.152;2022-07-15T14:53:57;1.35;;;1.10;;
10174;SDS011;18221;38.704;0.152;2022-07-15T14:56:25;2.33;;;1.25;;
10174;SDS011;18221;38.704;0.152;2022-07-15T14:58:53;1.98;;;1.10;;
10174;SDS011;18221;38.704;0.152;2022-07-15T15:01:21;1.67;;;1.20;;
10174;SDS011;18221;38.704;0.152;2022-07-15T15:03:49;2.53;;;1.00;;
10174;SDS011;18221;38.704;0.152;2022-07-15T15:06:17;0.90;;;0.90;;
10174;SDS011;18221;38.704;0.152;2022-07-15T15:08:45;1.95;;;1.20;;
10174;SDS011;18221;38.704;0.152;2022-07-15T15:11:14;1.05;;;0.95;;
10174;SDS011;18221;38.704;0.152;2022-07-15T15:13:42;1.83;;;1.50;;
10174;SDS011;18221;38.704;0.152;2022-07-15T15:16:10;1.38;;;1.25;;
10174;SDS011;18221;38.704;0.152;2022-07-15T15:18:38;2.72;;;1.20;;
10174;SDS011;18221;38.704;0.152;2022-07-15T15:21:06;1.45;;;1.20;;
10174;SDS011;18221;38.704;0.152;2022-07-15T15:23:35;2.42;;;1.30;;
10174;SDS011;18221;38.704;0.152;2022-07-15T15:26:02;6.03;;;1.55;;
10174;SDS011;18221;38.704;0.152;2022-07-15T15:28:52;2.15;;;1.25;;
10174;SDS011;18221;38.704;0.152;2022-07-15T15:31:21;43.22;;;4.63;;
10174;SDS011;18221;38.704;0.152;2022-07-15T15:33:51;13.45;;;2.17;;